sensor_id;sensor_type;location;lat;lon;timestamp;P1;durP1;ratioP1;P2;durP2;ratioP2
45198;SDS011;30941;46.422;18.772;2023-05-25T00:01:59;8.50;;;7.00;;
45198;SDS011;30941;46.422;18.772;2023-05-25T00:04:28;9.52;;;7.88;;
45198;SDS011;30941;46.422;18.772;2023-05-25T00:06:54;8.60;;;7.18;;
45198;SDS011;30941;46.422;18.772;2023-05-25T00:09:19;9.73;;;7.00;;
45198;SDS011;30941;46.422;18.772;2023-05-25T00:11:45;20.67;;;8.07;;
45198;SDS011;30941;46.422;18.772;2023-05-25T00:14:29;8.90;;;7.68;;
45198;SDS011;30941;46.422;18.772;2023-05-25T00:16:54;11.75;;;7.78;;
45198;SDS011;30941;46.422;18.772;2023-05-25T00:19:20;13.15;;;7.47;;
45198;SDS011;30941;46.422;18.772;2023-05-25T00:21:46;9.25;;;7.22;;
45198;SDS011;30941;46.422;18.772;2023-05-25T00:24:12;10.18;;;8.00;;
45198;SDS011;30941;46.422;18.772;2023-05-25T00:26:38;11.43;;;8.65;;
45198;SDS011;30941;46.422;18.772;2023-05-25T00:29:03;10.52;;;7.50;;
45198;SDS011;30941;46.422;18.772;2023-05-25T00:31:29;12.43;;;8.80;;
45198;SDS011;30941;46.422;18.772;2023-05-25T00:33:56;9.18;;;7.90;;
45198;SDS011;30941;46.422;18.772;2023-05-25T00:36:23;11.38;;;8.38;;
45198;SDS011;30941;46.422;18.772;2023-05-25T00:38:48;10.43;;;8.52;;
45198;SDS011;30941;46.422;18.772;2023-05-25T00:41:15;9.88;;;8.20;;
45198;SDS011;30941;46.422;18.772;2023-05-25T00:43:41;11.25;;;8.52;;
45198;SDS011;30941;46.422;18.772;2023-05-25T00:46:06;12.48;;;9.50;;
45198;SDS011;30941;46.422;18.772;2023-05-25T00:48:33;12.40;;;9.02;;
45198;SDS011;30941;46.422;18.772;2023-05-25T00:50:59;11.95;;;8.93;;
45198;SDS011;30941;46.422;18.772;2023-05-25T00:53:24;11.32;;;9.38;;
45198;SDS011;30941;46.422;18.772;2023-05-25T00:55:58;12.07;;;9.30;;
45198;SDS011;30941;46.422;18.772;2023-05-25T00:58:29;12.32;;;9.05;;
45198;SDS011;30941;46.422;18.772;2023-05-25T01:00:56;10.63;;;8.63;;
45198;SDS011;30941;46.422;18.772;2023-05-25T01:03:22;12.27;;;9.23;;
45198;SDS011;30941;46.422;18.772;2023-05-25T01:05:52;14.00;;;9.50;;
45198;SDS011;30941;46.422;18.772;2023-05-25T01:08:18;11.68;;;9.68;;
45198;SDS011;30941;46.422;18.772;2023-05-25T01:10:47;13.68;;;9.55;;
45198;SDS011;30941;46.422;18.772;2023-05-25T01:13:12;11.40;;;8.82;;
45198;SDS011;30941;46.422;18.772;2023-05-25T01:15:38;12.93;;;9.65;;
45198;SDS011;30941;46.422;18.772;2023-05-25T01:18:04;11.77;;;9.20;;
45198;SDS011;30941;46.422;18.772;2023-05-25T01:20:30;13.25;;;9.93;;
45198;SDS011;30941;46.422;18.772;2023-05-25T01:22:59;12.40;;;9.75;;
45198;SDS011;30941;46.422;18.772;2023-05-25T01:25:39;14.30;;;10.63;;
45198;SDS011;30941;46.422;18.772;2023-05-25T01:28:14;14.20;;;10.40;;
45198;SDS011;30941;46.422;18.772;2023-05-25T01:30:44;11.68;;;9.52;;
45198;SDS011;30941;46.422;18.772;2023-05-25T01:33:12;16.05;;;10.23;;
45198;SDS011;30941;46.422;18.772;2023-05-25T01:35:37;15.63;;;9.82;;
45198;SDS011;30941;46.422;18.772;2023-05-25T01:38:04;13.23;;;9.70;;
45198;SDS011;30941;46.422;18.772;2023-05-25T01:40:31;12.70;;;9.68;;
45198;SDS011;30941;46.422;18.772;2023-05-25T01:42:56;16.10;;;10.55;;
45198;SDS011;30941;46.422;18.772;2023-05-25T01:45:21;14.57;;;10.63;;
45198;SDS011;30941;46.422;18.772;2023-05-25T01:50:22;13.75;;;10.55;;
45198;SDS011;30941;46.422;18.772;2023-05-25T01:53:01;13.15;;;10.27;;
45198;SDS011;30941;46.422;18.772;2023-05-25T01:55:28;13.40;;;10.50;;
45198;SDS011;30941;46.422;18.772;2023-05-25T01:57:54;13.00;;;9.98;;
45198;SDS011;30941;46.422;18.772;2023-05-25T02:00:22;12.10;;;10.43;;
45198;SDS011;30941;46.422;18.772;2023-05-25T02:02:49;13.77;;;11.10;;
45198;SDS011;30941;46.422;18.772;2023-05-25T02:05:15;15.02;;;10.55;;
45198;SDS011;30941;46.422;18.772;2023-05-25T02:07:44;16.27;;;11.45;;
45198;SDS011;30941;46.422;18.772;2023-05-25T02:10:09;15.60;;;10.00;;
45198;SDS011;30941;46.422;18.772;2023-05-25T02:12:35;15.93;;;10.52;;
45198;SDS011;30941;46.422;18.772;2023-05-25T02:15:00;12.95;;;9.98;;
45198;SDS011;30941;46.422;18.772;2023-05-25T02:17:26;14.55;;;11.00;;
45198;SDS011;30941;46.422;18.772;2023-05-25T02:19:51;14.18;;;10.55;;
45198;SDS011;30941;46.422;18.772;2023-05-25T02:22:18;15.52;;;11.10;;
45198;SDS011;30941;46.422;18.772;2023-05-25T02:24:46;14.98;;;11.13;;
45198;SDS011;30941;46.422;18.772;2023-05-25T02:27:12;13.10;;;10.60;;
45198;SDS011;30941;46.422;18.772;2023-05-25T02:29:38;14.85;;;11.07;;
45198;SDS011;30941;46.422;18.772;2023-05-25T02:32:03;15.85;;;11.18;;
45198;SDS011;30941;46.422;18.772;2023-05-25T02:34:29;12.02;;;10.32;;
45198;SDS011;30941;46.422;18.772;2023-05-25T02:36:55;13.70;;;11.05;;
45198;SDS011;30941;46.422;18.772;2023-05-25T02:39:20;15.90;;;10.88;;
45198;SDS011;30941;46.422;18.772;2023-05-25T02:41:46;12.60;;;9.73;;
45198;SDS011;30941;46.422;18.772;2023-05-25T02:44:11;15.52;;;11.63;;
45198;SDS011;30941;46.422;18.772;2023-05-25T02:46:36;18.00;;;12.10;;
45198;SDS011;30941;46.422;18.772;2023-05-25T02:49:02;14.05;;;11.52;;
45198;SDS011;30941;46.422;18.772;2023-05-25T02:51:27;18.75;;;11.63;;
45198;SDS011;30941;46.422;18.772;2023-05-25T02:53:53;14.55;;;10.80;;
45198;SDS011;30941;46.422;18.772;2023-05-25T02:56:19;16.35;;;11.20;;
45198;SDS011;30941;46.422;18.772;2023-05-25T02:58:46;16.33;;;11.30;;
45198;SDS011;30941;46.422;18.772;2023-05-25T03:01:12;14.30;;;10.50;;
45198;SDS011;30941;46.422;18.772;2023-05-25T03:03:42;21.13;;;12.82;;
45198;SDS011;30941;46.422;18.772;2023-05-25T03:06:11;13.95;;;11.30;;
45198;SDS011;30941;46.422;18.772;2023-05-25T03:08:38;13.63;;;11.10;;
45198;SDS011;30941;46.422;18.772;2023-05-25T03:11:04;14.57;;;11.30;;
45198;SDS011;30941;46.422;18.772;2023-05-25T03:13:29;14.75;;;11.45;;
45198;SDS011;30941;46.422;18.772;2023-05-25T03:15:54;15.98;;;11.25;;
45198;SDS011;30941;46.422;18.772;2023-05-25T03:18:20;14.65;;;11.63;;
45198;SDS011;30941;46.422;18.772;2023-05-25T03:20:45;17.73;;;12.10;;
45198;SDS011;30941;46.422;18.772;2023-05-25T03:23:11;15.45;;;11.77;;
45198;SDS011;30941;46.422;18.772;2023-05-25T03:25:37;15.18;;;10.93;;
45198;SDS011;30941;46.422;18.772;2023-05-25T03:28:02;14.80;;;11.57;;
45198;SDS011;30941;46.422;18.772;2023-05-25T03:30:27;17.45;;;11.68;;
45198;SDS011;30941;46.422;18.772;2023-05-25T03:32:54;16.73;;;11.45;;
45198;SDS011;30941;46.422;18.772;2023-05-25T03:35:19;16.17;;;10.90;;
45198;SDS011;30941;46.422;18.772;2023-05-25T03:37:45;14.73;;;11.00;;
45198;SDS011;30941;46.422;18.772;2023-05-25T03:40:10;16.92;;;12.55;;
45198;SDS011;30941;46.422;18.772;2023-05-25T03:42:36;19.25;;;11.63;;
45198;SDS011;30941;46.422;18.772;2023-05-25T03:45:02;17.13;;;12.68;;
45198;SDS011;30941;46.422;18.772;2023-05-25T03:47:27;16.00;;;11.90;;
45198;SDS011;30941;46.422;18.772;2023-05-25T03:49:53;19.08;;;12.80;;
45198;SDS011;30941;46.422;18.772;2023-05-25T03:52:19;18.05;;;11.65;;
45198;SDS011;30941;46.422;18.772;2023-05-25T03:54:44;14.50;;;11.30;;
45198;SDS011;30941;46.422;18.772;2023-05-25T03:57:09;15.85;;;11.30;;
45198;SDS011;30941;46.422;18.772;2023-05-25T03:59:35;15.80;;;12.50;;
45198;SDS011;30941;46.422;18.772;2023-05-25T04:02:00;17.73;;;12.40;;
45198;SDS011;30941;46.422;18.772;2023-05-25T04:04:26;15.35;;;11.73;;
45198;SDS011;30941;46.422;18.772;2023-05-25T04:06:52;17.00;;;12.15;;
45198;SDS011;30941;46.422;18.772;2023-05-25T04:09:18;16.80;;;12.27;;
45198;SDS011;30941;46.422;18.772;2023-05-25T04:11:44;16.73;;;12.00;;
45198;SDS011;30941;46.422;18.772;2023-05-25T04:14:09;17.35;;;12.48;;
45198;SDS011;30941;46.422;18.772;2023-05-25T04:16:35;16.27;;;12.05;;
45198;SDS011;30941;46.422;18.772;2023-05-25T04:19:00;14.40;;;11.55;;
45198;SDS011;30941;46.422;18.772;2023-05-25T04:21:26;15.32;;;11.70;;
45198;SDS011;30941;46.422;18.772;2023-05-25T04:23:51;16.50;;;12.15;;
45198;SDS011;30941;46.422;18.772;2023-05-25T04:26:17;15.10;;;12.05;;
45198;SDS011;30941;46.422;18.772;2023-05-25T04:28:43;18.60;;;12.43;;
45198;SDS011;30941;46.422;18.772;2023-05-25T04:31:09;15.23;;;11.27;;
45198;SDS011;30941;46.422;18.772;2023-05-25T04:33:36;16.35;;;11.95;;
45198;SDS011;30941;46.422;18.772;2023-05-25T04:36:03;14.80;;;11.02;;
45198;SDS011;30941;46.422;18.772;2023-05-25T04:38:29;16.05;;;13.10;;
45198;SDS011;30941;46.422;18.772;2023-05-25T04:40:54;14.43;;;11.70;;
45198;SDS011;30941;46.422;18.772;2023-05-25T04:43:21;13.63;;;10.82;;
45198;SDS011;30941;46.422;18.772;2023-05-25T04:45:49;20.45;;;13.80;;
45198;SDS011;30941;46.422;18.772;2023-05-25T04:48:16;15.90;;;12.00;;
45198;SDS011;30941;46.422;18.772;2023-05-25T04:50:41;15.93;;;11.85;;
45198;SDS011;30941;46.422;18.772;2023-05-25T04:53:07;17.88;;;12.63;;
45198;SDS011;30941;46.422;18.772;2023-05-25T04:55:32;18.48;;;12.50;;
45198;SDS011;30941;46.422;18.772;2023-05-25T04:57:58;17.70;;;11.98;;
45198;SDS011;30941;46.422;18.772;2023-05-25T05:00:23;15.50;;;11.30;;
45198;SDS011;30941;46.422;18.772;2023-05-25T05:02:49;17.13;;;11.48;;
45198;SDS011;30941;46.422;18.772;2023-05-25T05:05:15;20.90;;;11.77;;
45198;SDS011;30941;46.422;18.772;2023-05-25T05:07:41;15.90;;;12.48;;
45198;SDS011;30941;46.422;18.772;2023-05-25T05:10:07;19.05;;;13.00;;
45198;SDS011;30941;46.422;18.772;2023-05-25T05:12:32;18.58;;;12.43;;
45198;SDS011;30941;46.422;18.772;2023-05-25T05:14:58;16.40;;;11.93;;
45198;SDS011;30941;46.422;18.772;2023-05-25T05:17:23;14.55;;;11.48;;
45198;SDS011;30941;46.422;18.772;2023-05-25T05:19:50;16.58;;;12.05;;
45198;SDS011;30941;46.422;18.772;2023-05-25T05:22:15;16.50;;;12.38;;
45198;SDS011;30941;46.422;18.772;2023-05-25T05:24:41;17.13;;;12.88;;
45198;SDS011;30941;46.422;18.772;2023-05-25T05:27:06;17.60;;;12.98;;
45198;SDS011;30941;46.422;18.772;2023-05-25T05:29:32;17.42;;;12.45;;
45198;SDS011;30941;46.422;18.772;2023-05-25T05:31:58;16.73;;;13.10;;
45198;SDS011;30941;46.422;18.772;2023-05-25T05:34:24;16.55;;;12.50;;
45198;SDS011;30941;46.422;18.772;2023-05-25T05:36:50;15.35;;;12.43;;
45198;SDS011;30941;46.422;18.772;2023-05-25T05:39:15;16.83;;;11.68;;
45198;SDS011;30941;46.422;18.772;2023-05-25T05:41:40;18.75;;;12.43;;
45198;SDS011;30941;46.422;18.772;2023-05-25T05:44:09;15.07;;;12.38;;
45198;SDS011;30941;46.422;18.772;2023-05-25T05:46:35;16.92;;;11.90;;
45198;SDS011;30941;46.422;18.772;2023-05-25T05:49:01;15.20;;;11.75;;
45198;SDS011;30941;46.422;18.772;2023-05-25T05:51:27;19.38;;;11.73;;
45198;SDS011;30941;46.422;18.772;2023-05-25T05:53:53;14.02;;;11.30;;
45198;SDS011;30941;46.422;18.772;2023-05-25T05:56:18;14.95;;;11.82;;
45198;SDS011;30941;46.422;18.772;2023-05-25T05:58:43;16.17;;;11.13;;
45198;SDS011;30941;46.422;18.772;2023-05-25T06:01:09;17.83;;;11.80;;
45198;SDS011;30941;46.422;18.772;2023-05-25T06:03:34;14.93;;;12.05;;
45198;SDS011;30941;46.422;18.772;2023-05-25T06:06:00;15.20;;;11.80;;
45198;SDS011;30941;46.422;18.772;2023-05-25T06:08:25;20.80;;;10.90;;
45198;SDS011;30941;46.422;18.772;2023-05-25T06:10:51;18.02;;;11.55;;
45198;SDS011;30941;46.422;18.772;2023-05-25T06:13:17;19.63;;;11.10;;
45198;SDS011;30941;46.422;18.772;2023-05-25T06:15:42;13.18;;;10.63;;
45198;SDS011;30941;46.422;18.772;2023-05-25T06:18:08;14.60;;;11.65;;
45198;SDS011;30941;46.422;18.772;2023-05-25T06:20:33;14.73;;;11.75;;
45198;SDS011;30941;46.422;18.772;2023-05-25T06:22:59;12.85;;;10.73;;
45198;SDS011;30941;46.422;18.772;2023-05-25T06:25:25;14.75;;;10.38;;
45198;SDS011;30941;46.422;18.772;2023-05-25T06:27:50;16.10;;;10.43;;
45198;SDS011;30941;46.422;18.772;2023-05-25T06:30:16;14.40;;;10.68;;
45198;SDS011;30941;46.422;18.772;2023-05-25T06:32:41;13.02;;;10.57;;
45198;SDS011;30941;46.422;18.772;2023-05-25T06:35:08;14.98;;;10.02;;
45198;SDS011;30941;46.422;18.772;2023-05-25T06:37:36;13.88;;;10.25;;
45198;SDS011;30941;46.422;18.772;2023-05-25T06:40:03;13.88;;;11.05;;
45198;SDS011;30941;46.422;18.772;2023-05-25T06:42:34;12.32;;;9.95;;
45198;SDS011;30941;46.422;18.772;2023-05-25T06:44:59;13.82;;;10.20;;
45198;SDS011;30941;46.422;18.772;2023-05-25T06:47:25;14.88;;;10.27;;
45198;SDS011;30941;46.422;18.772;2023-05-25T06:49:50;14.50;;;10.52;;
45198;SDS011;30941;46.422;18.772;2023-05-25T06:52:16;15.15;;;10.65;;
45198;SDS011;30941;46.422;18.772;2023-05-25T06:54:41;12.90;;;10.23;;
45198;SDS011;30941;46.422;18.772;2023-05-25T06:57:06;18.27;;;10.70;;
45198;SDS011;30941;46.422;18.772;2023-05-25T06:59:32;14.18;;;9.73;;
45198;SDS011;30941;46.422;18.772;2023-05-25T07:01:58;14.70;;;10.57;;
45198;SDS011;30941;46.422;18.772;2023-05-25T07:04:24;14.65;;;10.35;;
45198;SDS011;30941;46.422;18.772;2023-05-25T07:06:49;12.18;;;10.18;;
45198;SDS011;30941;46.422;18.772;2023-05-25T07:09:15;14.05;;;10.80;;
45198;SDS011;30941;46.422;18.772;2023-05-25T07:11:41;13.75;;;10.35;;
45198;SDS011;30941;46.422;18.772;2023-05-25T07:14:06;16.95;;;11.23;;
45198;SDS011;30941;46.422;18.772;2023-05-25T07:16:32;13.27;;;10.77;;
45198;SDS011;30941;46.422;18.772;2023-05-25T07:18:58;14.98;;;10.48;;
45198;SDS011;30941;46.422;18.772;2023-05-25T07:21:23;15.02;;;11.05;;
45198;SDS011;30941;46.422;18.772;2023-05-25T07:23:49;13.40;;;11.50;;
45198;SDS011;30941;46.422;18.772;2023-05-25T07:26:14;13.88;;;11.15;;
45198;SDS011;30941;46.422;18.772;2023-05-25T07:28:40;13.23;;;11.07;;
45198;SDS011;30941;46.422;18.772;2023-05-25T07:31:05;17.15;;;11.27;;
45198;SDS011;30941;46.422;18.772;2023-05-25T07:33:31;13.85;;;10.85;;
45198;SDS011;30941;46.422;18.772;2023-05-25T07:35:56;14.90;;;9.65;;
45198;SDS011;30941;46.422;18.772;2023-05-25T07:38:21;13.32;;;10.00;;
45198;SDS011;30941;46.422;18.772;2023-05-25T07:40:47;20.00;;;11.43;;
45198;SDS011;30941;46.422;18.772;2023-05-25T07:43:13;12.75;;;10.70;;
45198;SDS011;30941;46.422;18.772;2023-05-25T07:45:38;17.60;;;10.05;;
45198;SDS011;30941;46.422;18.772;2023-05-25T07:48:04;11.85;;;9.90;;
45198;SDS011;30941;46.422;18.772;2023-05-25T07:50:31;13.80;;;10.23;;
45198;SDS011;30941;46.422;18.772;2023-05-25T07:52:56;79.05;;;16.42;;
45198;SDS011;30941;46.422;18.772;2023-05-25T07:55:24;22.55;;;12.20;;
45198;SDS011;30941;46.422;18.772;2023-05-25T07:57:50;18.88;;;10.95;;
45198;SDS011;30941;46.422;18.772;2023-05-25T08:00:16;11.55;;;9.38;;
45198;SDS011;30941;46.422;18.772;2023-05-25T08:02:42;11.82;;;9.80;;
45198;SDS011;30941;46.422;18.772;2023-05-25T08:05:07;13.00;;;10.38;;
45198;SDS011;30941;46.422;18.772;2023-05-25T08:07:34;18.05;;;9.25;;
45198;SDS011;30941;46.422;18.772;2023-05-25T08:09:59;16.08;;;9.38;;
45198;SDS011;30941;46.422;18.772;2023-05-25T08:12:25;10.38;;;8.38;;
45198;SDS011;30941;46.422;18.772;2023-05-25T08:14:50;9.75;;;8.35;;
45198;SDS011;30941;46.422;18.772;2023-05-25T08:17:16;12.30;;;7.75;;
45198;SDS011;30941;46.422;18.772;2023-05-25T08:19:41;11.00;;;8.50;;
45198;SDS011;30941;46.422;18.772;2023-05-25T08:22:07;9.55;;;7.70;;
45198;SDS011;30941;46.422;18.772;2023-05-25T08:24:32;11.60;;;8.23;;
45198;SDS011;30941;46.422;18.772;2023-05-25T08:26:58;12.30;;;8.98;;
45198;SDS011;30941;46.422;18.772;2023-05-25T08:29:23;9.65;;;7.30;;
45198;SDS011;30941;46.422;18.772;2023-05-25T08:31:48;9.63;;;8.00;;
45198;SDS011;30941;46.422;18.772;2023-05-25T08:34:15;8.65;;;7.57;;
45198;SDS011;30941;46.422;18.772;2023-05-25T08:36:41;9.23;;;6.85;;
45198;SDS011;30941;46.422;18.772;2023-05-25T08:39:06;9.80;;;6.90;;
45198;SDS011;30941;46.422;18.772;2023-05-25T08:41:33;8.07;;;6.60;;
45198;SDS011;30941;46.422;18.772;2023-05-25T08:44:00;8.88;;;7.05;;
45198;SDS011;30941;46.422;18.772;2023-05-25T08:46:30;11.52;;;8.23;;
45198;SDS011;30941;46.422;18.772;2023-05-25T08:49:12;10.93;;;8.57;;
45198;SDS011;30941;46.422;18.772;2023-05-25T08:54:09;8.98;;;6.55;;
45198;SDS011;30941;46.422;18.772;2023-05-25T08:56:53;9.55;;;7.28;;
45198;SDS011;30941;46.422;18.772;2023-05-25T09:04:38;8.05;;;6.72;;
45198;SDS011;30941;46.422;18.772;2023-05-25T09:07:04;8.85;;;7.43;;
45198;SDS011;30941;46.422;18.772;2023-05-25T09:09:31;9.75;;;6.90;;
45198;SDS011;30941;46.422;18.772;2023-05-25T09:11:56;12.48;;;7.47;;
45198;SDS011;30941;46.422;18.772;2023-05-25T09:14:22;8.93;;;7.15;;
45198;SDS011;30941;46.422;18.772;2023-05-25T09:16:48;10.38;;;6.80;;
45198;SDS011;30941;46.422;18.772;2023-05-25T09:19:14;11.25;;;7.20;;
45198;SDS011;30941;46.422;18.772;2023-05-25T09:21:39;9.07;;;8.05;;
45198;SDS011;30941;46.422;18.772;2023-05-25T09:24:05;12.85;;;7.28;;
45198;SDS011;30941;46.422;18.772;2023-05-25T09:26:31;10.52;;;7.55;;
45198;SDS011;30941;46.422;18.772;2023-05-25T09:28:56;8.40;;;7.15;;
45198;SDS011;30941;46.422;18.772;2023-05-25T09:31:22;8.68;;;6.65;;
45198;SDS011;30941;46.422;18.772;2023-05-25T09:33:48;11.02;;;7.55;;
45198;SDS011;30941;46.422;18.772;2023-05-25T09:36:14;9.60;;;7.85;;
45198;SDS011;30941;46.422;18.772;2023-05-25T09:38:40;10.18;;;7.13;;
45198;SDS011;30941;46.422;18.772;2023-05-25T09:41:05;11.98;;;8.25;;
45198;SDS011;30941;46.422;18.772;2023-05-25T09:43:31;10.15;;;7.60;;
45198;SDS011;30941;46.422;18.772;2023-05-25T09:45:57;8.70;;;7.38;;
45198;SDS011;30941;46.422;18.772;2023-05-25T09:48:22;13.63;;;7.57;;
45198;SDS011;30941;46.422;18.772;2023-05-25T09:50:48;12.75;;;7.95;;
45198;SDS011;30941;46.422;18.772;2023-05-25T09:53:15;9.45;;;7.63;;
45198;SDS011;30941;46.422;18.772;2023-05-25T09:55:40;8.88;;;7.20;;
45198;SDS011;30941;46.422;18.772;2023-05-25T09:58:05;13.00;;;6.95;;
45198;SDS011;30941;46.422;18.772;2023-05-25T10:00:31;8.50;;;7.18;;
45198;SDS011;30941;46.422;18.772;2023-05-25T10:02:57;7.85;;;6.78;;
45198;SDS011;30941;46.422;18.772;2023-05-25T10:05:23;10.07;;;7.70;;
45198;SDS011;30941;46.422;18.772;2023-05-25T10:07:49;12.30;;;7.30;;
45198;SDS011;30941;46.422;18.772;2023-05-25T10:10:17;12.05;;;7.22;;
45198;SDS011;30941;46.422;18.772;2023-05-25T10:12:43;8.90;;;6.82;;
45198;SDS011;30941;46.422;18.772;2023-05-25T10:15:10;8.45;;;6.78;;
45198;SDS011;30941;46.422;18.772;2023-05-25T10:17:38;10.02;;;6.78;;
45198;SDS011;30941;46.422;18.772;2023-05-25T10:20:09;9.70;;;6.57;;
45198;SDS011;30941;46.422;18.772;2023-05-25T10:22:35;7.57;;;6.35;;
45198;SDS011;30941;46.422;18.772;2023-05-25T10:25:15;6.65;;;5.95;;
45198;SDS011;30941;46.422;18.772;2023-05-25T10:30:52;8.73;;;6.55;;
45198;SDS011;30941;46.422;18.772;2023-05-25T10:33:18;10.23;;;6.63;;
45198;SDS011;30941;46.422;18.772;2023-05-25T10:35:45;6.90;;;5.40;;
45198;SDS011;30941;46.422;18.772;2023-05-25T10:38:11;6.65;;;5.47;;
45198;SDS011;30941;46.422;18.772;2023-05-25T10:40:36;10.70;;;5.47;;
45198;SDS011;30941;46.422;18.772;2023-05-25T10:43:02;7.22;;;6.32;;
45198;SDS011;30941;46.422;18.772;2023-05-25T10:45:29;6.90;;;5.95;;
45198;SDS011;30941;46.422;18.772;2023-05-25T10:47:54;9.20;;;6.97;;
45198;SDS011;30941;46.422;18.772;2023-05-25T10:50:21;7.43;;;5.80;;
45198;SDS011;30941;46.422;18.772;2023-05-25T10:52:58;8.73;;;5.80;;
45198;SDS011;30941;46.422;18.772;2023-05-25T10:55:25;6.80;;;6.05;;
45198;SDS011;30941;46.422;18.772;2023-05-25T10:58:08;9.85;;;6.20;;
45198;SDS011;30941;46.422;18.772;2023-05-25T11:00:35;9.65;;;5.82;;
45198;SDS011;30941;46.422;18.772;2023-05-25T11:03:00;9.43;;;6.38;;
45198;SDS011;30941;46.422;18.772;2023-05-25T11:07:55;7.20;;;6.38;;
45198;SDS011;30941;46.422;18.772;2023-05-25T11:10:55;7.45;;;5.97;;
45198;SDS011;30941;46.422;18.772;2023-05-25T11:13:23;7.15;;;6.03;;
45198;SDS011;30941;46.422;18.772;2023-05-25T11:19:00;7.95;;;6.10;;
45198;SDS011;30941;46.422;18.772;2023-05-25T11:23:55;6.22;;;5.45;;
45198;SDS011;30941;46.422;18.772;2023-05-25T11:26:25;7.50;;;6.60;;
45198;SDS011;30941;46.422;18.772;2023-05-25T11:28:52;8.18;;;5.85;;
45198;SDS011;30941;46.422;18.772;2023-05-25T11:31:19;10.80;;;6.47;;
45198;SDS011;30941;46.422;18.772;2023-05-25T11:33:56;8.13;;;5.97;;
45198;SDS011;30941;46.422;18.772;2023-05-25T11:36:28;6.22;;;5.38;;
45198;SDS011;30941;46.422;18.772;2023-05-25T11:38:55;7.07;;;5.60;;
45198;SDS011;30941;46.422;18.772;2023-05-25T11:41:21;7.78;;;5.70;;
45198;SDS011;30941;46.422;18.772;2023-05-25T11:43:47;6.07;;;5.47;;
45198;SDS011;30941;46.422;18.772;2023-05-25T11:46:17;7.30;;;5.70;;
45198;SDS011;30941;46.422;18.772;2023-05-25T11:48:52;7.88;;;6.35;;
45198;SDS011;30941;46.422;18.772;2023-05-25T11:51:21;7.88;;;6.25;;
45198;SDS011;30941;46.422;18.772;2023-05-25T11:53:48;7.13;;;5.47;;
45198;SDS011;30941;46.422;18.772;2023-05-25T11:56:14;6.95;;;5.00;;
45198;SDS011;30941;46.422;18.772;2023-05-25T11:58:41;7.50;;;5.20;;
45198;SDS011;30941;46.422;18.772;2023-05-25T12:01:18;7.07;;;5.55;;
45198;SDS011;30941;46.422;18.772;2023-05-25T12:03:48;8.48;;;5.40;;
45198;SDS011;30941;46.422;18.772;2023-05-25T12:08:52;7.80;;;5.97;;
45198;SDS011;30941;46.422;18.772;2023-05-25T12:11:27;9.93;;;5.95;;
45198;SDS011;30941;46.422;18.772;2023-05-25T12:13:53;6.03;;;5.18;;
45198;SDS011;30941;46.422;18.772;2023-05-25T12:16:19;7.30;;;5.47;;
45198;SDS011;30941;46.422;18.772;2023-05-25T12:18:44;7.75;;;5.05;;
45198;SDS011;30941;46.422;18.772;2023-05-25T12:21:10;6.30;;;5.07;;
45198;SDS011;30941;46.422;18.772;2023-05-25T12:23:35;6.50;;;5.13;;
45198;SDS011;30941;46.422;18.772;2023-05-25T12:26:10;6.32;;;5.72;;
45198;SDS011;30941;46.422;18.772;2023-05-25T12:28:37;7.97;;;5.63;;
45198;SDS011;30941;46.422;18.772;2023-05-25T12:34:00;7.63;;;6.03;;
45198;SDS011;30941;46.422;18.772;2023-05-25T12:39:13;7.30;;;5.30;;
45198;SDS011;30941;46.422;18.772;2023-05-25T12:41:50;7.47;;;5.70;;
45198;SDS011;30941;46.422;18.772;2023-05-25T12:44:23;11.88;;;6.30;;
45198;SDS011;30941;46.422;18.772;2023-05-25T12:46:51;9.32;;;6.03;;
45198;SDS011;30941;46.422;18.772;2023-05-25T12:49:23;9.23;;;6.13;;
45198;SDS011;30941;46.422;18.772;2023-05-25T12:51:49;8.77;;;6.30;;
45198;SDS011;30941;46.422;18.772;2023-05-25T12:54:15;10.20;;;6.20;;
45198;SDS011;30941;46.422;18.772;2023-05-25T12:56:57;7.32;;;5.75;;
45198;SDS011;30941;46.422;18.772;2023-05-25T12:59:22;8.63;;;6.05;;
45198;SDS011;30941;46.422;18.772;2023-05-25T13:01:47;8.40;;;5.85;;
45198;SDS011;30941;46.422;18.772;2023-05-25T13:04:13;8.18;;;6.32;;
45198;SDS011;30941;46.422;18.772;2023-05-25T13:06:38;6.88;;;5.85;;
45198;SDS011;30941;46.422;18.772;2023-05-25T13:09:03;7.45;;;5.78;;
45198;SDS011;30941;46.422;18.772;2023-05-25T13:11:29;6.68;;;5.47;;
45198;SDS011;30941;46.422;18.772;2023-05-25T13:13:54;8.02;;;5.95;;
45198;SDS011;30941;46.422;18.772;2023-05-25T13:16:20;7.47;;;5.78;;
45198;SDS011;30941;46.422;18.772;2023-05-25T13:18:46;6.78;;;6.07;;
45198;SDS011;30941;46.422;18.772;2023-05-25T13:21:11;6.72;;;5.18;;
45198;SDS011;30941;46.422;18.772;2023-05-25T13:23:36;7.93;;;5.65;;
45198;SDS011;30941;46.422;18.772;2023-05-25T13:26:02;7.05;;;5.60;;
45198;SDS011;30941;46.422;18.772;2023-05-25T13:28:27;5.90;;;5.25;;
45198;SDS011;30941;46.422;18.772;2023-05-25T13:30:52;6.20;;;5.05;;
45198;SDS011;30941;46.422;18.772;2023-05-25T13:33:18;7.13;;;5.03;;
45198;SDS011;30941;46.422;18.772;2023-05-25T13:35:43;7.30;;;4.78;;
45198;SDS011;30941;46.422;18.772;2023-05-25T13:38:31;8.90;;;5.85;;
45198;SDS011;30941;46.422;18.772;2023-05-25T13:40:57;7.40;;;5.35;;
45198;SDS011;30941;46.422;18.772;2023-05-25T13:43:23;6.68;;;5.10;;
45198;SDS011;30941;46.422;18.772;2023-05-25T13:45:48;5.82;;;4.82;;
45198;SDS011;30941;46.422;18.772;2023-05-25T13:48:14;6.45;;;4.50;;
45198;SDS011;30941;46.422;18.772;2023-05-25T13:50:39;5.55;;;4.68;;
45198;SDS011;30941;46.422;18.772;2023-05-25T13:53:05;6.38;;;4.82;;
45198;SDS011;30941;46.422;18.772;2023-05-25T13:55:30;8.02;;;5.35;;
45198;SDS011;30941;46.422;18.772;2023-05-25T13:57:55;7.32;;;5.38;;
45198;SDS011;30941;46.422;18.772;2023-05-25T14:00:21;6.35;;;4.30;;
45198;SDS011;30941;46.422;18.772;2023-05-25T14:02:46;6.47;;;4.45;;
45198;SDS011;30941;46.422;18.772;2023-05-25T14:05:11;6.13;;;4.95;;
45198;SDS011;30941;46.422;18.772;2023-05-25T14:07:37;6.07;;;4.40;;
45198;SDS011;30941;46.422;18.772;2023-05-25T14:10:03;7.13;;;4.63;;
45198;SDS011;30941;46.422;18.772;2023-05-25T14:12:29;5.22;;;4.20;;
45198;SDS011;30941;46.422;18.772;2023-05-25T14:14:55;7.07;;;5.05;;
45198;SDS011;30941;46.422;18.772;2023-05-25T14:17:20;6.28;;;4.50;;
45198;SDS011;30941;46.422;18.772;2023-05-25T14:19:46;7.07;;;4.70;;
45198;SDS011;30941;46.422;18.772;2023-05-25T14:22:11;5.65;;;4.60;;
45198;SDS011;30941;46.422;18.772;2023-05-25T14:24:36;6.88;;;4.78;;
45198;SDS011;30941;46.422;18.772;2023-05-25T14:27:02;6.30;;;4.72;;
45198;SDS011;30941;46.422;18.772;2023-05-25T14:29:28;7.57;;;5.28;;
45198;SDS011;30941;46.422;18.772;2023-05-25T14:31:53;10.27;;;5.57;;
45198;SDS011;30941;46.422;18.772;2023-05-25T14:34:19;6.00;;;4.88;;
45198;SDS011;30941;46.422;18.772;2023-05-25T14:36:44;6.43;;;4.75;;
45198;SDS011;30941;46.422;18.772;2023-05-25T14:39:09;5.57;;;4.97;;
45198;SDS011;30941;46.422;18.772;2023-05-25T14:41:35;7.45;;;5.00;;
45198;SDS011;30941;46.422;18.772;2023-05-25T14:44:00;5.40;;;4.60;;
45198;SDS011;30941;46.422;18.772;2023-05-25T14:46:26;6.15;;;4.93;;
45198;SDS011;30941;46.422;18.772;2023-05-25T14:48:51;6.68;;;5.07;;